Terminal Aerodrome Forecast
Issued by NWS

Current Version | Previous Version | Graphics & Text | Print | Product List | Glossary On
Versions: 1 2 3 4 5 6 7 8 9 10 11 12 13 14 15 16 17 18 19 20 21 22 23 24 25 26 27 28 29 30 31 32 33 34
000
FTUS41 KRLX 271509 AAA
TAFCKB
TAF AMD
KCKB 271509Z 2715/2812 00000KT P6SM SCT050
     FM271800 VRB04KT P6SM VCTS SCT045CB SCT070
     FM280100 VRB02KT P6SM SCT050 SCT070
     FM280600 00000KT 3SM BR SCT070=

USA.gov is the U.S. government's official web portal to all federal, state and local government web resources and services.